Appleby, United Kingdom
Current Conditions -  °F | °C
As of 10:50 AM on Thursday 23 Oct 2014 (Local Time) from EGNJ Reporting Station
Broken Clouds Broken Clouds  
Wind Chill: 55°   Ceiling: 3000
Heat Index: 55°   Visibility: 6mi
Dew Point: 50°   Wind: 18mph
Humidity: 82%   Direction: 200°SSW
Pressure: 30"   Gusts: NA
Location:  53.62°N, 0.57°W
Report Text: EGNJ 230950Z 20016KT 9999 BKN030 13/10 Q1016
Loading
Personal Weather Stations






























Interactive Weather Map
Tropical Storm Tracking
New forecast layout! Learn more

10-Day Weather Forecast

Advertisements
Track Severe Weather on mobile